Lawton, OK (73501)

6:53 PM CDT on March 30, 2017 (GMT -0500)
Liberty Hights | | Change Station
Active Advisory: Flood Warning

Elev 1184 ft 34.62 °N, 98.41 °W | Updated 4 seconds ago

Clear
Clear
74.1 °F
Feels Like 75 °F
N
0.4
Wind Variable Wind from South
Gusts 2.5 mph

Today
High -- | Low -- °F
--% Chance of Precip.
Yesterday
High -- | Low -- °F
Precip. -- in
Pressure 29.68 in
Visibility 10.0 miles
Clouds Clear
Heat Index 75 °F
Dew Point 22 °F
Humidity 14%
Rainfall 0.00 in
Snow Depth Not available.
7:22 AM 7:53 PM
Waxing Crescent, 11% visible
METAR KLAW 302253Z 20006KT 10SM CLR 22/09 A2970 RMK AO2 SLP051 T02220094
Pressure 29.68 in
Visibility 10.0 miles
Clouds Clear
Heat Index 75 °F
Dew Point 22 °F
Humidity 14%
Rainfall 0.00 in
Snow Depth Not available.
7:22 AM 7:53 PM
Waxing Crescent, 11% visible
METAR KLAW 302253Z 20006KT 10SM CLR 22/09 A2970 RMK AO2 SLP051 T02220094

Get Your Daily Forecast Email!

Thanks for signing up!

Be on the lookout for a verification email in your inbox.

You'll start receiving severe weather alerts in your inbox..

×

10-Day Weather Forecast

Almanac

Astronomy

Mar. 30, 2017 Rise Set
Actual Time
Civil Twilight
Nautical Twilight
Astronomical Twilight
Moon
Length of Visible Light
Length of Day
Tomorrow will be .
, % of the Moon is Illuminated

Today's Extremes

State Highs State Lows

Community

WunderPhotos

Upload Photos

1,962,540 photos uploaded!

WunderBlog® & News

Nearby

Air Quality

  Air Quality AQ Index Pollutant
Not available.

Snow Depth

Station Depth Elevation

Earthquake Activity

City Distance Mag. Time & Date
Minimum magnitude displayed is 2.5.

Earthquake Activity

City Distance Mag. Time & Date
Minimum magnitude displayed is 2.5.

Coastal Water Temperatures

Place Temperature

Stations

Nearby Weather Stations

Station Location Temp. Windchill Dew Point Humidity Wind Precip. Elev Updated Type
                   

Watches & Warnings

Flood Warning
Issued: 2:19 PM CDT Mar. 30, 2017 – National Weather Service

The Flood Warning continues for
the east Cache creek near Walters

* until Friday morning... or until the warning is cancelled.

* At 1:30 PM Thursday the stage was 26.9 feet.

* Major flooding is occurring.

* Flood stage is 21.0 feet.

* Forecast... the east Cache creek has crested and will continue to
fall. The east Cache creek will fall below flood stage early Friday
morning.


Lat... Lon 3422 9837 3421 9823 3440 9823 3451 9831
      3451 9846 3439 9836